createdAt,value
2023-01-17T00:00:17.410Z,94.5
2023-01-17T00:01:17.276Z,94.6
2023-01-17T00:02:17.401Z,94.7
2023-01-17T00:03:17.575Z,94.3
2023-01-17T00:04:17.259Z,94.3
2023-01-17T00:05:17.239Z,93.7
2023-01-17T00:06:17.246Z,93.9
2023-01-17T00:07:17.248Z,94.6
2023-01-17T00:08:17.235Z,94.8
2023-01-17T00:09:17.295Z,94.7
2023-01-17T00:10:17.223Z,94.8
2023-01-17T00:11:17.332Z,94.4
2023-01-17T00:12:17.353Z,93.8
2023-01-17T00:13:17.283Z,93.1
2023-01-17T00:14:17.232Z,93.6
2023-01-17T00:15:17.227Z,93.6
2023-01-17T00:16:17.271Z,93.9
2023-01-17T00:17:17.481Z,94.1
2023-01-17T00:18:17.507Z,94.4
2023-01-17T00:19:17.231Z,94.4
2023-01-17T00:20:20.009Z,94
2023-01-17T00:21:17.243Z,94.5
2023-01-17T00:22:18.022Z,94.7
2023-01-17T00:23:16.581Z,94.4
2023-01-17T00:24:17.803Z,95
2023-01-17T00:25:17.303Z,95.5
2023-01-17T00:26:17.555Z,95.9
2023-01-17T00:27:17.247Z,95.4
2023-01-17T00:28:17.616Z,95.4
2023-01-17T00:29:17.221Z,96
2023-01-17T00:30:17.227Z,96.1
2023-01-17T00:31:18.126Z,96.6
2023-01-17T00:32:18.027Z,96.9
2023-01-17T00:33:17.259Z,97
2023-01-17T00:34:17.709Z,97.4
2023-01-17T00:36:17.219Z,97.9
2023-01-17T00:37:17.671Z,97.8
2023-01-17T00:38:17.248Z,97.7
2023-01-17T00:39:17.241Z,97.3
2023-01-17T00:40:17.804Z,96.8
2023-01-17T00:41:17.304Z,97.3
2023-01-17T00:42:17.881Z,97.3
2023-01-17T00:43:17.234Z,97.7
2023-01-17T00:44:17.631Z,98
2023-01-17T00:45:17.226Z,97.7
2023-01-17T00:46:16.362Z,97.7
2023-01-17T00:47:17.379Z,97.3
2023-01-17T00:48:17.239Z,97
2023-01-17T00:49:17.311Z,96.6
2023-01-17T00:50:17.574Z,96.4
2023-01-17T00:51:17.232Z,96.2
2023-01-17T00:52:17.276Z,96
2023-01-17T00:53:16.947Z,96
2023-01-17T00:54:18.988Z,96.3
2023-01-17T00:55:17.417Z,96.6
2023-01-17T00:56:17.662Z,96.2
2023-01-17T00:57:17.249Z,96.4
2023-01-17T00:58:17.223Z,96.7
2023-01-17T00:59:17.214Z,96.3
2023-01-17T01:00:17.627Z,96.1
2023-01-17T01:01:17.343Z,96.2
2023-01-17T01:02:17.591Z,96.4
2023-01-17T01:03:17.271Z,96.8
2023-01-17T01:04:18.099Z,96.5
2023-01-17T01:05:17.231Z,96.5
2023-01-17T01:06:17.224Z,96.2
2023-01-17T01:07:17.422Z,96.1
2023-01-17T01:08:17.474Z,96.2
2023-01-17T01:09:17.230Z,95.8
2023-01-17T01:10:17.536Z,95.3
2023-01-17T01:11:17.227Z,95.2
2023-01-17T01:12:17.982Z,94.9
2023-01-17T01:13:17.363Z,94.2
2023-01-17T01:14:17.381Z,93.9
2023-01-17T01:15:18.213Z,93.4
2023-01-17T01:16:17.226Z,93.4
2023-01-17T01:17:17.958Z,93.6
2023-01-17T01:18:17.327Z,94
2023-01-17T01:19:17.869Z,94.3
2023-01-17T01:20:17.903Z,94.8
2023-01-17T01:21:17.662Z,95
2023-01-17T01:22:17.212Z,94.6
2023-01-17T01:23:16.671Z,94.4
2023-01-17T01:24:18.169Z,93.8
2023-01-17T01:25:17.232Z,94.1
2023-01-17T01:26:17.817Z,94
2023-01-17T01:27:17.222Z,94
2023-01-17T01:28:17.216Z,93.9
2023-01-17T01:29:17.220Z,93.4
2023-01-17T01:30:17.224Z,93.4
2023-01-17T01:31:17.273Z,92.7
2023-01-17T01:32:17.292Z,92.1
2023-01-17T01:33:17.214Z,92.3
2023-01-17T01:34:16.779Z,92.7
2023-01-17T01:35:17.236Z,92.7
2023-01-17T01:36:17.242Z,92.8
2023-01-17T01:37:17.240Z,93.3
2023-01-17T01:38:17.225Z,93.9
2023-01-17T01:39:17.603Z,94.1
2023-01-17T01:40:17.440Z,94
2023-01-17T01:41:17.459Z,93.3
2023-01-17T01:42:17.212Z,92.1
2023-01-17T01:43:18.207Z,91.6
2023-01-17T01:44:17.965Z,91.3
2023-01-17T01:45:17.224Z,90.9
2023-01-17T01:46:17.214Z,90.2
2023-01-17T01:47:17.862Z,90.3
2023-01-17T01:48:17.269Z,90.1
2023-01-17T01:49:18.078Z,90
2023-01-17T01:50:17.218Z,89.7
2023-01-17T01:51:17.999Z,90.2
2023-01-17T01:52:17.216Z,90.5
2023-01-17T01:53:16.286Z,90.7
2023-01-17T01:54:17.280Z,91
2023-01-17T01:55:17.223Z,91.5
2023-01-17T01:56:17.232Z,91.3
2023-01-17T01:57:17.226Z,91.6
2023-01-17T01:58:17.219Z,91.4
2023-01-17T01:59:17.795Z,91.1
2023-01-17T02:00:17.560Z,90.9
2023-01-17T02:01:17.372Z,91.5
2023-01-17T02:02:17.223Z,91.1
2023-01-17T02:03:17.236Z,91
2023-01-17T02:04:17.223Z,90.6
2023-01-17T02:05:17.778Z,90.8
2023-01-17T02:06:17.257Z,90.6
2023-01-17T02:07:17.215Z,90.3
2023-01-17T02:08:17.659Z,90.6
2023-01-17T02:09:17.878Z,90.3
2023-01-17T02:10:17.995Z,90.3
2023-01-17T02:11:17.249Z,90
2023-01-17T02:12:17.833Z,88.4
2023-01-17T02:13:17.228Z,88.2
2023-01-17T02:14:17.249Z,88.5
2023-01-17T02:15:17.231Z,88.4
2023-01-17T02:16:17.296Z,88.5
2023-01-17T02:17:17.235Z,88.3
2023-01-17T02:18:17.274Z,87.9
2023-01-17T02:19:17.685Z,87.7
2023-01-17T02:20:17.317Z,86.7
2023-01-17T02:21:17.889Z,86.9
2023-01-17T02:22:17.213Z,86.5
2023-01-17T02:23:16.290Z,87.3
2023-01-17T02:24:17.224Z,87.4
2023-01-17T02:25:17.597Z,86.7
2023-01-17T02:26:17.268Z,86.7
2023-01-17T02:27:17.252Z,87.2
2023-01-17T02:28:16.596Z,87.7
2023-01-17T02:29:20.971Z,87.8
2023-01-17T02:30:20.985Z,88
2023-01-17T02:31:20.986Z,88
2023-01-17T02:32:20.968Z,88.1
2023-01-17T02:33:20.985Z,88.6
2023-01-17T02:34:20.967Z,88.8
2023-01-17T02:35:20.960Z,88.6
2023-01-17T02:36:20.981Z,88.5
2023-01-17T02:37:20.963Z,88.4
2023-01-17T02:38:20.966Z,88.1
2023-01-17T02:39:20.951Z,87.9
2023-01-17T02:40:20.975Z,87.8
2023-01-17T02:41:20.960Z,87.6
2023-01-17T02:42:20.961Z,87.4
2023-01-17T02:43:20.973Z,87
2023-01-17T02:44:21.041Z,87.3
2023-01-17T02:45:21.081Z,87.6
2023-01-17T02:46:21.134Z,88
2023-01-17T02:47:21.237Z,88.2
2023-01-17T02:48:21.224Z,88.3
2023-01-17T02:49:20.971Z,88.5
2023-01-17T02:50:20.975Z,87.8
2023-01-17T02:51:20.974Z,87.7
2023-01-17T02:52:20.966Z,88.2
2023-01-17T02:53:20.952Z,88.5
2023-01-17T02:54:20.966Z,88.8
2023-01-17T02:55:20.955Z,89.5
2023-01-17T02:56:20.962Z,90.2
2023-01-17T02:57:20.961Z,90.3
2023-01-17T02:58:20.970Z,90.7
2023-01-17T02:59:20.990Z,90.6
2023-01-17T03:00:20.948Z,90.4
2023-01-17T03:01:21.036Z,90.2
2023-01-17T03:02:20.973Z,89.9
2023-01-17T03:03:20.955Z,89.8
2023-01-17T03:04:20.956Z,90.4
2023-01-17T03:05:20.978Z,91.3
2023-01-17T03:06:20.955Z,92
2023-01-17T03:07:20.985Z,92.6
2023-01-17T03:08:20.954Z,93.2
2023-01-17T03:09:20.963Z,93.3
2023-01-17T03:10:20.964Z,93.2
2023-01-17T03:11:20.962Z,93.2
2023-01-17T03:12:20.959Z,92.8
2023-01-17T03:13:20.956Z,92.7
2023-01-17T03:14:20.961Z,93
2023-01-17T03:15:26.169Z,93
2023-01-17T03:16:20.986Z,92.6
2023-01-17T03:17:20.950Z,92.3
2023-01-17T03:18:20.961Z,92.3
2023-01-17T03:19:20.975Z,92.5
2023-01-17T03:20:22.574Z,92.8
2023-01-17T03:21:20.957Z,92
2023-01-17T03:22:21.018Z,91.8
2023-01-17T03:23:20.962Z,91.8
2023-01-17T03:24:20.954Z,92.2
2023-01-17T03:25:20.967Z,92.3
2023-01-17T03:26:20.963Z,92.7
2023-01-17T03:27:20.988Z,92.7
2023-01-17T03:28:20.954Z,92.7
2023-01-17T03:29:20.953Z,92.7
2023-01-17T03:30:20.977Z,92.5
2023-01-17T03:31:20.953Z,92.6
2023-01-17T03:32:20.954Z,92.4
2023-01-17T03:33:20.955Z,92.2
2023-01-17T03:34:20.975Z,92.4
2023-01-17T03:35:20.981Z,92.1
2023-01-17T03:36:20.963Z,91.9
2023-01-17T03:37:20.960Z,91.7
2023-01-17T03:38:20.988Z,91.6
2023-01-17T03:39:21.021Z,91.5
2023-01-17T03:40:20.963Z,90.8
2023-01-17T03:41:20.958Z,90.4
2023-01-17T03:42:20.959Z,90.6
2023-01-17T03:43:20.961Z,90.3
2023-01-17T03:44:20.958Z,89.7
2023-01-17T03:45:20.972Z,89.3
2023-01-17T03:46:20.957Z,89.4
2023-01-17T03:47:20.950Z,89.7
2023-01-17T03:48:20.951Z,89.5
2023-01-17T03:49:20.963Z,89.1
2023-01-17T03:50:20.959Z,88.1
2023-01-17T03:51:20.948Z,87.2
2023-01-17T03:52:20.943Z,87.8
2023-01-17T03:53:20.945Z,87.2
2023-01-17T03:54:20.946Z,86.9
2023-01-17T03:55:20.960Z,86.9
2023-01-17T03:56:20.952Z,86.9
2023-01-17T03:57:20.960Z,86.8
2023-01-17T03:58:20.950Z,86.5
2023-01-17T03:59:20.953Z,86
2023-01-17T04:00:20.969Z,85.8
2023-01-17T04:01:21.272Z,85.2
2023-01-17T04:02:20.984Z,85.8
2023-01-17T04:03:20.945Z,86
2023-01-17T04:04:20.969Z,85.9
2023-01-17T04:05:20.979Z,86.4
2023-01-17T04:06:20.974Z,87.2
2023-01-17T04:07:20.953Z,86.8
2023-01-17T04:08:20.971Z,86.8
2023-01-17T04:09:20.973Z,86.3
2023-01-17T04:10:20.946Z,86
2023-01-17T04:11:20.957Z,85.5
2023-01-17T04:12:20.961Z,84.9
2023-01-17T04:13:20.984Z,84.9
2023-01-17T04:14:20.946Z,85.4
2023-01-17T04:15:23.928Z,85
2023-01-17T04:16:20.977Z,85.5
2023-01-17T04:17:20.960Z,85.4
2023-01-17T04:18:20.957Z,85.6
2023-01-17T04:19:20.953Z,85.7
2023-01-17T04:20:20.993Z,85.5
2023-01-17T04:21:20.960Z,85.7
2023-01-17T04:22:20.945Z,86.7
2023-01-17T04:23:20.951Z,87.7
2023-01-17T04:24:20.945Z,87.3
2023-01-17T04:25:20.966Z,86.4
2023-01-17T04:26:20.940Z,86.6
2023-01-17T04:27:20.964Z,86.7
2023-01-17T04:28:20.963Z,87.4
2023-01-17T04:29:20.951Z,87.8
2023-01-17T04:30:20.950Z,88.2
2023-01-17T04:31:21.005Z,88.1
2023-01-17T04:32:20.954Z,88.1
2023-01-17T04:33:20.947Z,87.9
2023-01-17T04:34:20.947Z,87.5
2023-01-17T04:35:20.957Z,87.6
2023-01-17T04:36:20.939Z,86.8
2023-01-17T04:37:20.938Z,86.6
2023-01-17T04:38:20.943Z,86.6
2023-01-17T04:39:20.947Z,86.2
2023-01-17T04:40:20.981Z,86.2
2023-01-17T04:41:20.941Z,86.5
2023-01-17T04:42:20.961Z,86.1
2023-01-17T04:43:20.939Z,85.9
2023-01-17T04:44:20.942Z,85.9
2023-01-17T04:45:20.947Z,86.3
2023-01-17T04:46:20.972Z,85.9
2023-01-17T04:47:21.007Z,85.8
2023-01-17T04:48:20.954Z,85.6
2023-01-17T04:49:20.942Z,86.3
2023-01-17T04:50:20.943Z,86.1
2023-01-17T04:51:20.940Z,86
2023-01-17T04:52:20.944Z,86.4
2023-01-17T04:53:20.953Z,86.7
2023-01-17T04:54:20.940Z,86.8
2023-01-17T04:55:20.947Z,86.8
2023-01-17T04:56:20.939Z,86.7
2023-01-17T04:57:20.940Z,87.2
2023-01-17T04:58:20.971Z,87.5
2023-01-17T04:59:20.958Z,88
2023-01-17T05:00:23.893Z,87.6
2023-01-17T05:01:21.038Z,87.6
2023-01-17T05:02:20.987Z,87.6
2023-01-17T05:03:20.953Z,87.1
2023-01-17T05:04:21.002Z,86.9
2023-01-17T05:05:20.951Z,86.5
2023-01-17T05:06:20.949Z,86
2023-01-17T05:07:20.941Z,85.4
2023-01-17T05:08:20.954Z,85.3
2023-01-17T05:09:20.939Z,84.8
2023-01-17T05:10:20.960Z,84.4
2023-01-17T05:11:20.973Z,83.9
2023-01-17T05:12:20.942Z,83.4
2023-01-17T05:13:20.929Z,83.9
2023-01-17T05:14:20.955Z,83.8
2023-01-17T05:15:20.941Z,83.9
2023-01-17T05:16:20.991Z,84.1
2023-01-17T05:17:20.935Z,84.1
2023-01-17T05:18:20.953Z,84
2023-01-17T05:19:21.106Z,84
2023-01-17T05:20:20.985Z,83.6
2023-01-17T05:21:20.930Z,83
2023-01-17T05:22:20.939Z,83.2
2023-01-17T05:23:20.952Z,83.7
2023-01-17T05:24:20.958Z,84
2023-01-17T05:25:20.948Z,83.7
2023-01-17T05:26:20.943Z,83.8
2023-01-17T05:27:20.963Z,84.7
2023-01-17T05:28:20.946Z,85.5
2023-01-17T05:29:20.949Z,85.6
2023-01-17T05:30:20.961Z,84.7
2023-01-17T05:31:21.096Z,84.4
2023-01-17T05:32:20.975Z,84.1
2023-01-17T05:33:21.026Z,84
2023-01-17T05:34:20.940Z,83.8
2023-01-17T05:35:20.978Z,83.6
2023-01-17T05:36:21.273Z,83.8
2023-01-17T05:37:20.970Z,83.4
2023-01-17T05:38:20.926Z,83.1
2023-01-17T05:39:20.941Z,82.8
2023-01-17T05:40:20.960Z,82.6
2023-01-17T05:41:20.979Z,82.9
2023-01-17T05:42:20.975Z,82.7
2023-01-17T05:43:22.229Z,82.7
2023-01-17T05:44:20.935Z,82.6
2023-01-17T05:45:20.943Z,83.3
2023-01-17T05:46:21.000Z,83.4
2023-01-17T05:48:20.933Z,83.6
2023-01-17T05:49:20.938Z,83.6
2023-01-17T05:50:20.932Z,83.9
2023-01-17T05:51:20.952Z,83.6
2023-01-17T05:52:20.948Z,84.2
2023-01-17T05:53:20.939Z,84.2
2023-01-17T05:54:20.935Z,84.5
2023-01-17T05:55:20.969Z,84.6
2023-01-17T05:56:20.941Z,84.9
2023-01-17T05:57:20.932Z,84.3
2023-01-17T05:58:20.942Z,84.5
2023-01-17T05:59:35.939Z,84.6
2023-01-17T06:00:20.937Z,84.6
2023-01-17T06:01:20.991Z,84.4
2023-01-17T06:02:20.960Z,84
2023-01-17T06:03:20.946Z,84.1
2023-01-17T06:04:20.980Z,84.7
2023-01-17T06:06:20.924Z,84.6
2023-01-17T06:07:20.937Z,84.4
2023-01-17T06:08:20.933Z,84.1
2023-01-17T06:09:20.933Z,83.7
2023-01-17T06:10:20.973Z,84.1
2023-01-17T06:11:20.931Z,84.3
2023-01-17T06:12:22.184Z,83.9
2023-01-17T06:13:20.987Z,84.1
2023-01-17T06:14:20.930Z,83.8
2023-01-17T06:15:20.939Z,84.1
2023-01-17T06:16:21.016Z,84.2
2023-01-17T06:17:20.929Z,85.4
2023-01-17T06:18:20.944Z,84.5
2023-01-17T06:19:20.931Z,83.7
2023-01-17T06:20:20.945Z,83.6
2023-01-17T06:21:20.930Z,84.5
2023-01-17T06:22:20.930Z,84.9
2023-01-17T06:23:20.960Z,84.9
2023-01-17T06:24:20.931Z,85.1
2023-01-17T06:25:20.941Z,84.9
2023-01-17T06:26:20.938Z,85
2023-01-17T06:27:20.926Z,84.8
2023-01-17T06:28:21.014Z,85.1
2023-01-17T06:29:20.930Z,84.8
2023-01-17T06:30:20.943Z,84.5
2023-01-17T06:31:21.019Z,84.8
2023-01-17T06:32:20.928Z,84.4
2023-01-17T06:33:20.926Z,84.9
2023-01-17T06:34:20.974Z,84.8
2023-01-17T06:35:20.985Z,84.4
2023-01-17T06:36:20.936Z,84.5
2023-01-17T06:37:20.939Z,84.8
2023-01-17T06:38:20.990Z,84.7
2023-01-17T06:39:20.929Z,84.4
2023-01-17T06:40:20.929Z,84.8
2023-01-17T06:41:20.925Z,85
2023-01-17T06:42:20.935Z,85.1
2023-01-17T06:43:20.929Z,85.4
2023-01-17T06:44:20.953Z,85.4
2023-01-17T06:45:20.938Z,85.8
2023-01-17T06:46:21.300Z,85.6
2023-01-17T06:47:20.955Z,85.7
2023-01-17T06:48:20.936Z,86
2023-01-17T06:49:20.927Z,86.8
2023-01-17T06:50:20.943Z,86.8
2023-01-17T06:51:20.931Z,86.9
2023-01-17T06:52:20.952Z,86.9
2023-01-17T06:53:20.964Z,87.2
2023-01-17T06:54:20.956Z,87.1
2023-01-17T06:55:20.957Z,87.6
2023-01-17T06:56:20.938Z,87.7
2023-01-17T06:57:20.934Z,87.3
2023-01-17T06:58:20.943Z,87.8
2023-01-17T06:59:20.933Z,87.9
2023-01-17T07:01:20.986Z,87.9
2023-01-17T07:02:20.942Z,87.9
2023-01-17T07:03:20.945Z,88
2023-01-17T07:04:20.987Z,87.7
2023-01-17T07:05:20.936Z,87.9
2023-01-17T07:06:20.938Z,88
2023-01-17T07:07:20.928Z,88.3
2023-01-17T07:08:20.962Z,88.5
2023-01-17T07:09:20.938Z,88.2
2023-01-17T07:10:20.943Z,88.3
2023-01-17T07:11:21.222Z,88.4
2023-01-17T07:12:20.937Z,88.1
2023-01-17T07:13:20.937Z,88.4
2023-01-17T07:14:20.918Z,88.4
2023-01-17T07:15:20.958Z,88.4
2023-01-17T07:16:21.202Z,88.4
2023-01-17T07:17:20.932Z,88.9
2023-01-17T07:18:20.939Z,88.6
2023-01-17T07:19:20.928Z,89
2023-01-17T07:20:20.936Z,89.2
2023-01-17T07:21:20.925Z,89.3
2023-01-17T07:22:20.944Z,89.4
2023-01-17T07:23:20.947Z,89.6
2023-01-17T07:24:20.938Z,89.7
2023-01-17T07:25:20.923Z,89.6
2023-01-17T07:26:20.948Z,89.5
2023-01-17T07:27:20.917Z,89.7
2023-01-17T07:28:20.930Z,89.7
2023-01-17T07:29:20.944Z,89
2023-01-17T07:30:20.927Z,89.2
2023-01-17T07:31:21.025Z,89.3
2023-01-17T07:32:20.960Z,89.6
2023-01-17T07:33:20.927Z,89.8
2023-01-17T07:34:20.943Z,89.9
2023-01-17T07:35:20.923Z,89.9
2023-01-17T07:36:20.969Z,90.5
2023-01-17T07:37:20.952Z,90.5
2023-01-17T07:38:20.940Z,90.6
2023-01-17T07:39:20.933Z,90.7
2023-01-17T07:40:20.923Z,90.7
2023-01-17T07:41:21.026Z,90.8
2023-01-17T07:42:23.179Z,90.9
2023-01-17T07:43:20.929Z,91.2
2023-01-17T07:44:20.921Z,91
2023-01-17T07:45:20.973Z,90.7
2023-01-17T07:46:20.930Z,90.8
2023-01-17T07:47:21.216Z,90.9
2023-01-17T07:48:20.929Z,90.9
2023-01-17T07:49:20.931Z,91.1
2023-01-17T07:50:20.929Z,91.5
2023-01-17T07:51:20.945Z,91.6
2023-01-17T07:52:20.920Z,91.6
2023-01-17T07:53:20.932Z,91.7
2023-01-17T07:54:20.927Z,91.4
2023-01-17T07:55:20.934Z,91.2
2023-01-17T07:56:20.924Z,91.1
2023-01-17T07:57:20.931Z,91
2023-01-17T07:58:20.922Z,90.9
2023-01-17T07:59:20.917Z,90.9
2023-01-17T08:00:20.918Z,90.8
2023-01-17T08:01:21.113Z,90.9
2023-01-17T08:02:20.935Z,90.7
2023-01-17T08:03:20.928Z,90.6
2023-01-17T08:04:20.924Z,90.5
2023-01-17T08:05:20.927Z,90.5
2023-01-17T08:06:20.940Z,90.1
2023-01-17T08:07:20.930Z,90.3
2023-01-17T08:08:20.927Z,90.4
2023-01-17T08:09:20.937Z,90.4
2023-01-17T08:10:20.921Z,90.4
2023-01-17T08:11:20.921Z,90.6
2023-01-17T08:12:20.911Z,90.4
2023-01-17T08:13:20.916Z,90.1
2023-01-17T08:14:20.913Z,89.8
2023-01-17T08:15:20.926Z,89.7
2023-01-17T08:16:21.020Z,88.7
2023-01-17T08:17:20.923Z,88.1
2023-01-17T08:18:20.954Z,88.3
2023-01-17T08:19:20.921Z,88.5
2023-01-17T08:20:20.921Z,89.1
2023-01-17T08:21:20.984Z,89.3
2023-01-17T08:22:20.911Z,89.7
2023-01-17T08:23:20.954Z,89.6
2023-01-17T08:24:20.918Z,89.8
2023-01-17T08:25:20.914Z,89.9
2023-01-17T08:26:20.929Z,90
2023-01-17T08:27:20.921Z,89.7
2023-01-17T08:28:20.929Z,89.3
2023-01-17T08:29:20.914Z,89.1
2023-01-17T08:30:20.923Z,89.1
2023-01-17T08:31:20.957Z,88.9
2023-01-17T08:32:20.927Z,88.9
2023-01-17T08:33:20.929Z,88.8
2023-01-17T08:34:20.921Z,88.8
2023-01-17T08:35:20.923Z,88.1
2023-01-17T08:36:20.925Z,87.4
2023-01-17T08:37:20.923Z,87.3
2023-01-17T08:38:20.946Z,87.1
2023-01-17T08:39:20.915Z,86.5
2023-01-17T08:40:20.997Z,86.1
2023-01-17T08:41:20.947Z,85.8
2023-01-17T08:42:20.930Z,85.5
2023-01-17T08:43:20.964Z,84.5
2023-01-17T08:44:20.920Z,83.6
2023-01-17T08:45:20.921Z,83.7
2023-01-17T08:46:20.939Z,83.5
2023-01-17T08:47:20.923Z,83.2
2023-01-17T08:48:20.904Z,83
2023-01-17T08:49:20.946Z,83
2023-01-17T08:50:20.941Z,82.9
2023-01-17T08:51:20.918Z,81.1
2023-01-17T08:52:20.911Z,81.8
2023-01-17T08:53:20.921Z,81.4
2023-01-17T08:54:20.930Z,82
2023-01-17T08:55:20.923Z,82.1
2023-01-17T08:56:20.909Z,82.4
2023-01-17T08:57:20.913Z,82.3
2023-01-17T08:58:20.917Z,82.8
2023-01-17T08:59:20.912Z,83.1
2023-01-17T09:00:20.935Z,83.3
2023-01-17T09:01:21.083Z,83.4
2023-01-17T09:02:20.920Z,83.8
2023-01-17T09:03:20.916Z,84.2
2023-01-17T09:04:21.040Z,84.4
2023-01-17T09:05:20.936Z,84.5
2023-01-17T09:06:20.920Z,84.6
2023-01-17T09:07:20.954Z,84.7
2023-01-17T09:08:20.918Z,84.5
2023-01-17T09:09:20.915Z,85.3
2023-01-17T09:10:20.924Z,86
2023-01-17T09:11:20.916Z,86
2023-01-17T09:12:20.911Z,85.6
2023-01-17T09:13:20.917Z,85.8
2023-01-17T09:14:20.908Z,86.1
2023-01-17T09:15:20.931Z,86.8
2023-01-17T09:16:21.012Z,87.1
2023-01-17T09:17:20.961Z,87.3
2023-01-17T09:18:20.912Z,88.1
2023-01-17T09:19:20.908Z,87.9
2023-01-17T09:20:21.051Z,88
2023-01-17T09:21:20.929Z,87.8
2023-01-17T09:22:20.923Z,87.6
2023-01-17T09:23:20.940Z,87.8
2023-01-17T09:24:20.916Z,87.7
2023-01-17T09:25:20.906Z,87.4
2023-01-17T09:26:21.190Z,87.1
2023-01-17T09:27:20.938Z,86.2
2023-01-17T09:28:20.918Z,84.8
2023-01-17T09:29:20.923Z,84.3
2023-01-17T09:30:21.019Z,83.5
2023-01-17T09:31:20.921Z,83.3
2023-01-17T09:32:20.938Z,82.5
2023-01-17T09:35:20.909Z,80.7
2023-01-17T09:36:20.904Z,81
2023-01-17T09:37:21.221Z,80
2023-01-17T09:38:20.911Z,80
2023-01-17T09:39:21.096Z,79.2
2023-01-17T09:40:20.978Z,79.4
2023-01-17T09:41:20.951Z,78.6
2023-01-17T09:42:20.919Z,78.9
2023-01-17T09:43:20.913Z,78.4
2023-01-17T09:44:20.922Z,78.4
2023-01-17T09:45:20.915Z,78.4
2023-01-17T09:46:20.907Z,77
2023-01-17T09:47:20.951Z,77.4
2023-01-17T09:48:20.912Z,77.9
2023-01-17T09:49:20.922Z,76.8
2023-01-17T09:50:20.911Z,76.6
2023-01-17T09:51:20.943Z,76.1
2023-01-17T09:52:20.912Z,76.3
2023-01-17T09:53:20.962Z,75.7
2023-01-17T09:54:20.942Z,74.2
2023-01-17T09:55:20.979Z,74.5
2023-01-17T09:56:20.912Z,75.9
2023-01-17T09:57:20.920Z,75.4
2023-01-17T09:58:20.913Z,74.8
2023-01-17T09:59:20.931Z,74.6
2023-01-17T10:00:20.913Z,74.4
2023-01-17T10:01:21.131Z,74.5
2023-01-17T10:02:21.162Z,75.4
2023-01-17T10:03:21.037Z,76
2023-01-17T10:04:20.991Z,75.7
2023-01-17T10:05:20.916Z,76.4
2023-01-17T10:06:20.912Z,75.5
2023-01-17T10:07:20.955Z,75.5
2023-01-17T10:08:20.909Z,74.9
2023-01-17T10:09:20.913Z,75
2023-01-17T10:10:21.013Z,75.1
2023-01-17T10:11:20.933Z,74.6
2023-01-17T10:12:20.925Z,73.2
2023-01-17T10:13:20.922Z,73.5
2023-01-17T10:14:20.940Z,73.3
2023-01-17T10:15:20.908Z,73.1
2023-01-17T10:16:20.954Z,73.8
2023-01-17T10:17:20.914Z,74.7
2023-01-17T10:18:29.488Z,74.9
2023-01-17T10:19:20.912Z,73.9
2023-01-17T10:20:20.916Z,70.9
2023-01-17T10:21:20.920Z,71.9
2023-01-17T10:22:20.944Z,72.1
2023-01-17T10:23:20.917Z,71.8
2023-01-17T10:24:20.905Z,71.8
2023-01-17T10:25:20.908Z,71.2
2023-01-17T10:26:20.919Z,71.1
2023-01-17T10:27:20.914Z,72
2023-01-17T10:28:20.909Z,72.3
2023-01-17T10:29:21.252Z,72.9
2023-01-17T10:30:20.900Z,70.7
2023-01-17T10:31:20.971Z,70.7
2023-01-17T10:32:20.906Z,70.8
2023-01-17T10:33:20.920Z,70.6
2023-01-17T10:34:20.915Z,71.3
2023-01-17T10:35:20.923Z,71.2
2023-01-17T10:36:20.916Z,70.9
2023-01-17T10:37:20.992Z,71.6
2023-01-17T10:38:20.899Z,71.9
2023-01-17T10:39:20.923Z,70.5
2023-01-17T10:40:20.906Z,71.2
2023-01-17T10:41:20.942Z,70.2
2023-01-17T10:42:20.917Z,69.9
2023-01-17T10:43:20.927Z,69.8
2023-01-17T10:44:20.929Z,69.5
2023-01-17T10:45:20.907Z,70.4
2023-01-17T10:46:21.187Z,69.2
2023-01-17T10:47:20.910Z,70.4
2023-01-17T10:48:23.190Z,69.2
2023-01-17T10:49:20.924Z,69.5
2023-01-17T10:50:20.911Z,68.6
2023-01-17T10:51:20.920Z,69.3
2023-01-17T10:52:20.904Z,68.7
2023-01-17T10:53:20.967Z,67.9
2023-01-17T10:54:20.914Z,68.5
2023-01-17T10:55:20.927Z,68.2
2023-01-17T10:56:20.908Z,68.4
2023-01-17T10:57:20.897Z,68.9
2023-01-17T10:58:20.934Z,68.9
2023-01-17T10:59:20.914Z,70.2
2023-01-17T11:00:20.920Z,70.4
2023-01-17T11:01:21.138Z,69.9
2023-01-17T11:02:21.036Z,71
2023-01-17T11:03:20.941Z,71.1
2023-01-17T11:04:20.924Z,69.9
2023-01-17T11:05:20.906Z,68.7
2023-01-17T11:06:20.900Z,67.8
2023-01-17T11:07:20.926Z,68.4
2023-01-17T11:08:20.899Z,68.3
2023-01-17T11:09:20.915Z,67.6
2023-01-17T11:10:20.907Z,67.8
2023-01-17T11:11:20.917Z,68.3
2023-01-17T11:12:20.920Z,67.9
2023-01-17T11:13:20.913Z,68.3
2023-01-17T11:14:20.904Z,68
2023-01-17T11:15:20.903Z,67.4
2023-01-17T11:16:20.909Z,66.7
2023-01-17T11:17:20.910Z,66.3
2023-01-17T11:18:20.907Z,66.5
2023-01-17T11:19:20.911Z,66.8
2023-01-17T11:20:20.913Z,67.6
2023-01-17T11:21:20.904Z,67.1
2023-01-17T11:22:20.903Z,67.2
2023-01-17T11:23:20.922Z,67
2023-01-17T11:24:20.953Z,67.3
2023-01-17T11:25:20.917Z,66.5
2023-01-17T11:26:20.913Z,67.2
2023-01-17T11:27:20.917Z,65.4
2023-01-17T11:28:20.933Z,64.6
2023-01-17T11:29:21.009Z,65.5
2023-01-17T11:30:20.973Z,65.4
2023-01-17T11:31:20.992Z,65.5
2023-01-17T11:32:20.908Z,66
2023-01-17T11:33:20.929Z,65.9
2023-01-17T11:34:20.909Z,66.7
2023-01-17T11:35:20.904Z,65.2
2023-01-17T11:36:20.933Z,64.9
2023-01-17T11:37:20.920Z,64.1
2023-01-17T11:38:20.938Z,64.6
2023-01-17T11:39:20.918Z,65.6
2023-01-17T11:40:20.965Z,64.1
2023-01-17T11:41:20.917Z,64.3
2023-01-17T11:42:20.905Z,64.6
2023-01-17T11:43:20.920Z,64.1
2023-01-17T11:44:20.893Z,64.3
2023-01-17T11:45:20.900Z,64.7
2023-01-17T11:46:27.207Z,65
2023-01-17T11:47:20.919Z,63.9
2023-01-17T11:48:20.902Z,63.7
2023-01-17T11:49:20.902Z,64.6
2023-01-17T11:50:20.919Z,64.6
2023-01-17T11:51:20.909Z,63.7
2023-01-17T11:52:20.898Z,64.1
2023-01-17T11:53:20.910Z,64.1
2023-01-17T11:54:20.940Z,63.5
2023-01-17T11:55:20.934Z,62.7
2023-01-17T11:56:20.906Z,62.5
2023-01-17T11:57:20.926Z,63.1
2023-01-17T11:58:20.906Z,64.2
2023-01-17T11:59:20.903Z,64.1
2023-01-17T12:00:20.899Z,63.5
2023-01-17T12:01:20.954Z,62.6
2023-01-17T12:02:20.901Z,63.9
2023-01-17T12:03:20.910Z,63.7
2023-01-17T12:04:20.914Z,63.8
2023-01-17T12:05:20.929Z,63.5
2023-01-17T12:06:20.904Z,63
2023-01-17T12:07:20.903Z,62.3
2023-01-17T12:08:20.910Z,62.7
2023-01-17T12:09:20.906Z,63.3
2023-01-17T12:10:20.905Z,62.4
2023-01-17T12:12:20.917Z,62.2
2023-01-17T12:13:20.895Z,62.2
2023-01-17T12:14:20.906Z,61.6
2023-01-17T12:15:20.909Z,61.7
2023-01-17T12:16:20.937Z,61.5
2023-01-17T12:17:20.891Z,62.2
2023-01-17T12:18:20.914Z,61.6
2023-01-17T12:19:20.914Z,59.9
2023-01-17T12:20:22.627Z,60.1
2023-01-17T12:21:20.910Z,60.6
2023-01-17T12:22:20.911Z,60.5
2023-01-17T12:23:20.912Z,59.6
2023-01-17T12:24:20.900Z,58.9
2023-01-17T12:25:20.930Z,58.7
2023-01-17T12:26:20.935Z,57.7
2023-01-17T12:27:20.910Z,57.6
2023-01-17T12:28:20.897Z,58.5
2023-01-17T12:29:20.911Z,59.1
2023-01-17T12:30:20.908Z,59.3
2023-01-17T12:31:20.942Z,58.2
2023-01-17T12:32:20.939Z,57.2
2023-01-17T12:33:20.908Z,57.8
2023-01-17T12:34:20.896Z,58.4
2023-01-17T12:35:20.906Z,56.7
2023-01-17T12:36:21.035Z,57
2023-01-17T12:37:20.928Z,58.6
2023-01-17T12:38:32.067Z,58.5
2023-01-17T12:39:20.905Z,58.7
2023-01-17T12:40:20.913Z,58.9
2023-01-17T12:41:20.914Z,60.8
2023-01-17T12:42:20.906Z,59.9
2023-01-17T12:43:20.911Z,59
2023-01-17T12:44:20.932Z,58
2023-01-17T12:45:20.913Z,55.9
2023-01-17T12:46:14.776Z,56.9
2023-01-17T12:47:20.903Z,58.1
2023-01-17T12:48:20.919Z,58.7
2023-01-17T12:49:20.903Z,58
2023-01-17T12:50:20.902Z,59.5
2023-01-17T12:51:20.933Z,58.8
2023-01-17T12:54:20.942Z,58.2
2023-01-17T12:56:31.195Z,60.3
2023-01-17T12:57:20.923Z,61.1
2023-01-17T12:58:20.912Z,60.7
2023-01-17T12:59:20.911Z,60.9
2023-01-17T13:00:20.947Z,60.9
2023-01-17T13:01:21.012Z,59.9
2023-01-17T13:02:20.970Z,59.2
2023-01-17T13:03:20.916Z,59.8
2023-01-17T13:04:20.903Z,60.3
2023-01-17T13:05:20.898Z,60.1
2023-01-17T13:06:20.908Z,61.2
2023-01-17T13:07:20.899Z,61.2
2023-01-17T13:08:20.894Z,61.3
2023-01-17T13:09:20.899Z,61.2
2023-01-17T13:10:20.935Z,61.4
2023-01-17T13:11:20.908Z,60.5
2023-01-17T13:12:20.891Z,61.5
2023-01-17T13:13:20.899Z,61.2
2023-01-17T13:14:20.920Z,61
2023-01-17T13:15:20.929Z,61.8
2023-01-17T13:16:20.943Z,61.9
2023-01-17T13:17:20.892Z,60.3
2023-01-17T13:18:20.904Z,60.4
2023-01-17T13:19:20.897Z,60.3
2023-01-17T13:20:20.902Z,60.5
2023-01-17T13:21:20.900Z,60.4
2023-01-17T13:22:22.034Z,60.6
2023-01-17T13:23:20.889Z,58.9
2023-01-17T13:24:20.894Z,58.3
2023-01-17T13:25:20.892Z,59.9
2023-01-17T13:26:20.954Z,60.6
2023-01-17T13:27:20.891Z,58.7
2023-01-17T13:28:20.928Z,58.7
2023-01-17T13:29:20.920Z,58.6
2023-01-17T13:30:20.899Z,58.3
2023-01-17T13:31:20.963Z,58.1
2023-01-17T13:32:20.900Z,57.3
2023-01-17T13:33:26.618Z,57.8